createdAt,value
2018-04-12T00:00:50.115Z,12.90
2018-04-12T00:03:18.400Z,12.90
2018-04-12T00:05:46.681Z,12.90
2018-04-12T00:08:14.955Z,12.80
2018-04-12T00:10:43.226Z,12.80
2018-04-12T00:13:10.762Z,12.80
2018-04-12T00:15:38.274Z,12.80
2018-04-12T00:18:05.790Z,12.80
2018-04-12T00:20:33.319Z,12.60
2018-04-12T00:23:00.815Z,12.50
2018-04-12T00:25:28.344Z,12.50
2018-04-12T00:27:55.857Z,12.50
2018-04-12T00:30:23.368Z,12.50
2018-04-12T00:32:50.884Z,12.50
2018-04-12T00:35:18.395Z,12.50
2018-04-12T00:37:45.914Z,12.40
2018-04-12T00:40:13.431Z,12.40
2018-04-12T00:42:40.954Z,12.40
2018-04-12T00:45:09.234Z,12.30
2018-04-12T00:47:36.734Z,12.30
2018-04-12T00:50:04.251Z,12.20
2018-04-12T00:52:31.759Z,12.20
2018-04-12T00:54:59.310Z,12.20
2018-04-12T00:57:26.816Z,12.10
2018-04-12T00:59:54.352Z,12.00
2018-04-12T01:02:21.874Z,11.90
2018-04-12T01:04:49.386Z,11.90
2018-04-12T01:07:16.915Z,11.90
2018-04-12T01:09:45.175Z,11.70
2018-04-12T01:12:12.708Z,11.70
2018-04-12T01:14:40.213Z,11.70
2018-04-12T01:17:08.236Z,11.60
2018-04-12T01:19:35.763Z,11.60
2018-04-12T01:22:04.056Z,11.60
2018-04-12T01:24:32.352Z,11.60
2018-04-12T01:26:59.869Z,11.60
2018-04-12T01:29:28.905Z,11.30
2018-04-12T01:31:56.406Z,11.30
2018-04-12T01:34:23.926Z,11.30
2018-04-12T01:36:51.453Z,11.30
2018-04-12T01:39:18.972Z,11.30
2018-04-12T01:41:46.496Z,11.20
2018-04-12T01:44:14.778Z,11.10
2018-04-12T01:46:43.077Z,11.00
2018-04-12T01:49:11.348Z,11.00
2018-04-12T01:51:39.635Z,10.90
2018-04-12T01:54:07.943Z,10.90
2018-04-12T01:56:35.445Z,10.90
2018-04-12T01:59:02.964Z,10.90
2018-04-12T02:01:30.475Z,10.80
2018-04-12T02:03:58.006Z,10.80
2018-04-12T02:06:25.519Z,10.70
2018-04-12T02:08:53.799Z,10.70
2018-04-12T02:11:21.319Z,10.70
2018-04-12T02:13:48.843Z,10.70
2018-04-12T02:16:17.109Z,10.70
2018-04-12T02:18:45.397Z,10.70
2018-04-12T02:21:13.685Z,10.70
2018-04-12T02:23:41.968Z,10.60
2018-04-12T02:26:10.257Z,10.60
2018-04-12T02:28:37.791Z,10.60
2018-04-12T02:31:06.071Z,10.60
2018-04-12T02:33:33.589Z,10.60
2018-04-12T02:36:01.108Z,10.60
2018-04-12T02:38:29.383Z,10.50
2018-04-12T02:40:57.663Z,10.40
2018-04-12T02:43:25.943Z,10.40
2018-04-12T02:45:53.459Z,10.40
2018-04-12T02:48:20.996Z,10.40
2018-04-12T02:50:48.521Z,10.30
2018-04-12T02:53:16.025Z,10.20
2018-04-12T02:55:43.540Z,10.20
2018-04-12T02:58:11.050Z,10.20
2018-04-12T03:00:38.582Z,10.10
2018-04-12T03:03:06.109Z,10.00
2018-04-12T03:05:33.622Z,9.80
2018-04-12T03:08:01.913Z,9.70
2018-04-12T03:10:30.197Z,9.60
2018-04-12T03:12:58.490Z,9.50
2018-04-12T03:15:26.000Z,9.50
2018-04-12T03:17:53.522Z,9.50
2018-04-12T03:20:21.051Z,9.60
2018-04-12T03:22:49.362Z,9.60
2018-04-12T03:25:16.867Z,9.60
2018-04-12T03:27:44.391Z,9.60
2018-04-12T03:30:11.911Z,9.70
2018-04-12T03:32:39.418Z,9.70
2018-04-12T03:35:06.917Z,9.70
2018-04-12T03:37:34.435Z,9.70
2018-04-12T03:40:02.713Z,9.80
2018-04-12T03:42:30.995Z,9.70
2018-04-12T03:44:58.498Z,9.70
2018-04-12T03:47:26.003Z,9.60
2018-04-12T03:49:55.177Z,9.50
2018-04-12T03:52:23.008Z,9.50
2018-04-12T03:54:50.540Z,9.50
2018-04-12T03:57:18.034Z,9.50
2018-04-12T03:59:45.584Z,9.50
2018-04-12T04:02:13.868Z,9.50
2018-04-12T04:04:41.397Z,9.50
2018-04-12T04:07:08.916Z,9.50
2018-04-12T04:09:36.427Z,9.50
2018-04-12T04:12:04.725Z,9.40
2018-04-12T04:14:41.843Z,9.40
2018-04-12T04:17:21.337Z,9.40
2018-04-12T04:20:00.621Z,9.30
2018-04-12T04:22:28.419Z,9.30
2018-04-12T04:24:55.925Z,9.30
2018-04-12T04:27:23.439Z,9.30
2018-04-12T04:29:50.954Z,9.30
2018-04-12T04:32:18.479Z,9.30
2018-04-12T04:34:45.990Z,9.30
2018-04-12T04:37:13.498Z,9.30
2018-04-12T04:39:41.020Z,9.30
2018-04-12T04:42:08.514Z,9.30
2018-04-12T04:44:36.053Z,9.30
2018-04-12T04:47:03.560Z,9.30
2018-04-12T04:49:31.096Z,9.30
2018-04-12T04:51:58.624Z,9.30
2018-04-12T04:54:26.165Z,9.30
2018-04-12T04:56:54.467Z,9.30
2018-04-12T04:59:22.751Z,9.40
2018-04-12T05:01:50.284Z,9.30
2018-04-12T05:04:17.782Z,9.40
2018-04-12T05:06:45.299Z,9.40
2018-04-12T05:09:12.826Z,9.40
2018-04-12T05:11:40.332Z,9.40
2018-04-12T05:14:07.881Z,9.40
2018-04-12T05:16:35.393Z,9.50
2018-04-12T05:19:02.922Z,9.50
2018-04-12T05:21:30.444Z,9.50
2018-04-12T05:23:57.947Z,9.60
2018-04-12T05:26:25.480Z,9.70
2018-04-12T05:28:52.993Z,9.90
2018-04-12T05:31:21.289Z,10.60
2018-04-12T05:33:49.567Z,11.00
2018-04-12T05:36:17.837Z,11.40
2018-04-12T05:38:46.131Z,11.60
2018-04-12T05:41:14.418Z,11.90
2018-04-12T05:43:41.958Z,11.80
2018-04-12T05:46:10.239Z,12.30
2018-04-12T05:48:39.307Z,12.70
2018-04-12T05:51:06.814Z,12.60
2018-04-12T05:53:35.081Z,12.90
2018-04-12T05:56:02.602Z,12.90
2018-04-12T05:58:30.106Z,13.00
2018-04-12T06:00:57.646Z,13.20
2018-04-12T06:03:25.153Z,13.20
2018-04-12T06:05:52.694Z,13.40
2018-04-12T06:08:20.198Z,13.50
2018-04-12T06:10:47.719Z,13.60
2018-04-12T06:13:15.242Z,13.70
2018-04-12T06:15:42.740Z,13.80
2018-04-12T06:18:10.263Z,13.90
2018-04-12T06:20:37.793Z,14.10
2018-04-12T06:23:06.090Z,14.40
2018-04-12T06:25:33.601Z,14.30
2018-04-12T06:28:01.111Z,14.50
2018-04-12T06:30:28.632Z,14.60
2018-04-12T06:32:56.166Z,14.70
2018-04-12T06:35:23.707Z,14.80
2018-04-12T06:37:51.217Z,15.00
2018-04-12T06:40:18.765Z,15.30
2018-04-12T06:42:46.283Z,16.00
2018-04-12T06:45:14.605Z,16.10
2018-04-12T06:47:42.124Z,16.10
2018-04-12T06:50:10.409Z,17.10
2018-04-12T06:52:38.700Z,17.20
2018-04-12T06:55:06.971Z,17.40
2018-04-12T06:57:35.259Z,17.80
2018-04-12T07:00:02.789Z,17.70
2018-04-12T07:02:30.326Z,18.10
2018-04-12T07:04:57.845Z,18.40
2018-04-12T07:07:26.134Z,18.70
2018-04-12T07:09:53.658Z,18.70
2018-04-12T07:12:21.161Z,18.90
2018-04-12T07:14:49.448Z,19.10
2018-04-12T07:17:16.966Z,19.10
2018-04-12T07:19:44.539Z,19.10
2018-04-12T07:22:12.063Z,19.20
2018-04-12T07:24:39.631Z,19.30
2018-04-12T07:27:07.148Z,19.40
2018-04-12T07:29:35.421Z,19.50
2018-04-12T07:32:02.940Z,19.50
2018-04-12T07:34:30.451Z,19.60
2018-04-12T07:36:58.747Z,19.90
2018-04-12T07:39:27.019Z,20.20
2018-04-12T07:41:55.331Z,20.30
2018-04-12T07:44:22.845Z,20.30
2018-04-12T07:46:50.369Z,20.40
2018-04-12T07:49:17.889Z,20.50
2018-04-12T07:51:46.172Z,20.70
2018-04-12T07:54:14.479Z,20.80
2018-04-12T07:56:42.059Z,20.80
2018-04-12T07:59:10.309Z,21.10
2018-04-12T08:01:38.600Z,21.10
2018-04-12T08:04:06.165Z,21.10
2018-04-12T08:06:33.677Z,21.10
2018-04-12T08:09:01.223Z,20.90
2018-04-12T08:11:28.720Z,20.70
2018-04-12T08:13:56.238Z,20.70
2018-04-12T08:16:23.780Z,20.70
2018-04-12T08:18:51.286Z,20.60
2018-04-12T08:21:18.806Z,20.40
2018-04-12T08:23:46.314Z,20.50
2018-04-12T08:26:13.848Z,20.80
2018-04-12T08:28:42.277Z,21.10
2018-04-12T08:31:09.788Z,21.20
2018-04-12T08:33:37.322Z,21.20
2018-04-12T08:36:05.618Z,21.60
2018-04-12T08:38:33.913Z,21.80
2018-04-12T08:41:02.196Z,22.00
2018-04-12T08:43:29.728Z,22.00
2018-04-12T08:45:58.047Z,22.10
2018-04-12T08:48:25.555Z,22.10
2018-04-12T08:50:53.086Z,22.20
2018-04-12T08:53:20.594Z,22.00
2018-04-12T08:55:48.177Z,22.00
2018-04-12T08:58:15.657Z,21.90
2018-04-12T09:00:43.220Z,21.90
2018-04-12T09:03:10.735Z,22.20
2018-04-12T09:05:38.244Z,22.30
2018-04-12T09:08:05.778Z,22.70
2018-04-12T09:10:33.282Z,22.80
2018-04-12T09:13:00.820Z,22.90
2018-04-12T09:15:29.093Z,22.60
2018-04-12T09:17:57.459Z,22.70
2018-04-12T09:20:24.941Z,22.60
2018-04-12T09:22:53.220Z,22.70
2018-04-12T09:25:21.526Z,22.40
2018-04-12T09:27:49.048Z,22.30
2018-04-12T09:30:16.589Z,22.00
2018-04-12T09:32:44.094Z,21.90
2018-04-12T09:35:12.394Z,22.30
2018-04-12T09:37:39.911Z,22.30
2018-04-12T09:40:07.428Z,22.50
2018-04-12T09:42:34.969Z,22.50
2018-04-12T09:45:03.256Z,22.60
2018-04-12T09:47:31.545Z,22.20
2018-04-12T09:49:59.811Z,22.00
2018-04-12T09:52:28.112Z,22.30
2018-04-12T09:54:55.635Z,22.30
2018-04-12T09:57:23.135Z,22.80
2018-04-12T09:59:51.569Z,22.90
2018-04-12T10:02:24.670Z,22.90
2018-04-12T10:04:55.101Z,22.60
2018-04-12T10:07:22.611Z,22.30
2018-04-12T10:09:50.141Z,22.30
2018-04-12T10:12:17.655Z,22.20
2018-04-12T10:14:45.186Z,21.80
2018-04-12T10:17:13.489Z,21.70
2018-04-12T10:19:41.000Z,21.70
2018-04-12T10:22:08.528Z,21.90
2018-04-12T10:24:36.038Z,22.40
2018-04-12T10:27:03.571Z,22.70
2018-04-12T10:29:31.083Z,22.90
2018-04-12T10:31:59.365Z,23.00
2018-04-12T10:34:27.653Z,23.30
2018-04-12T10:36:55.926Z,23.50
2018-04-12T10:39:24.217Z,23.60
2018-04-12T10:41:52.514Z,23.20
2018-04-12T10:44:20.116Z,23.10
2018-04-12T10:46:47.689Z,23.00
2018-04-12T10:49:15.172Z,22.90
2018-04-12T10:51:42.712Z,22.70
2018-04-12T10:54:10.221Z,22.80
2018-04-12T10:56:37.755Z,23.10
2018-04-12T10:59:05.272Z,23.00
2018-04-12T11:01:32.890Z,22.80
2018-04-12T11:04:01.202Z,23.40
2018-04-12T11:06:28.710Z,23.30
2018-04-12T11:08:56.251Z,24.00
2018-04-12T11:11:23.755Z,24.30
2018-04-12T11:13:51.277Z,23.70
2018-04-12T11:16:18.791Z,23.30
2018-04-12T11:18:46.326Z,23.30
2018-04-12T11:21:13.879Z,22.90
2018-04-12T11:23:41.430Z,23.00
2018-04-12T11:26:08.968Z,23.20
2018-04-12T11:28:36.494Z,23.10
2018-04-12T11:31:04.792Z,23.20
2018-04-12T11:33:32.325Z,23.20
2018-04-12T11:35:59.852Z,23.30
2018-04-12T11:38:27.420Z,23.40
2018-04-12T11:40:55.682Z,24.20
2018-04-12T11:43:23.977Z,24.60
2018-04-12T11:45:51.493Z,24.60
2018-04-12T11:48:19.772Z,24.30
2018-04-12T11:50:47.309Z,24.30
2018-04-12T11:53:14.819Z,24.30
2018-04-12T11:55:43.131Z,23.50
2018-04-12T11:58:10.658Z,23.40
2018-04-12T12:00:38.204Z,23.50
2018-04-12T12:03:05.726Z,23.20
2018-04-12T12:05:33.263Z,23.20
2018-04-12T12:08:01.562Z,23.10
2018-04-12T12:10:29.064Z,23.10
2018-04-12T12:12:56.596Z,23.20
2018-04-12T12:15:24.210Z,23.00
2018-04-12T12:17:51.756Z,23.10
2018-04-12T12:20:19.281Z,23.30
2018-04-12T12:22:47.583Z,23.40
2018-04-12T12:25:15.100Z,23.60
2018-04-12T12:27:43.397Z,23.50
2018-04-12T12:30:11.696Z,23.40
2018-04-12T12:32:39.220Z,23.40
2018-04-12T12:35:06.740Z,23.50
2018-04-12T12:37:39.871Z,23.50
2018-04-12T12:40:13.242Z,23.50
2018-04-12T12:42:46.577Z,23.10
2018-04-12T12:45:14.897Z,23.00
2018-04-12T12:47:42.408Z,23.00
2018-04-12T12:50:15.903Z,23.00
2018-04-12T12:52:49.277Z,23.00
2018-04-12T12:55:16.793Z,23.00
2018-04-12T12:57:45.095Z,22.70
2018-04-12T13:00:12.618Z,22.70
2018-04-12T13:02:40.168Z,22.50
2018-04-12T13:05:13.480Z,22.40
2018-04-12T13:07:41.052Z,22.20
2018-04-12T13:10:14.398Z,21.70
2018-04-12T13:12:47.978Z,21.50
2018-04-12T13:15:15.476Z,21.60
2018-04-12T13:17:42.990Z,21.80
2018-04-12T13:20:11.297Z,22.00
2018-04-12T13:22:38.795Z,22.00
2018-04-12T13:25:06.368Z,22.10
2018-04-12T13:27:33.873Z,22.20
2018-04-12T13:30:01.407Z,22.20
2018-04-12T13:32:28.916Z,22.30
2018-04-12T13:34:56.431Z,22.50
2018-04-12T13:37:23.968Z,22.50
2018-04-12T13:39:51.483Z,22.50
2018-04-12T13:42:19.783Z,22.70
2018-04-12T13:44:47.304Z,22.70
2018-04-12T13:47:20.919Z,22.70
2018-04-12T13:49:54.803Z,21.90
2018-04-12T13:52:23.282Z,21.90
2018-04-12T13:54:50.789Z,21.80
2018-04-12T13:57:24.895Z,21.10
2018-04-12T13:59:53.191Z,21.00
2018-04-12T14:02:20.728Z,21.00
2018-04-12T14:04:54.060Z,21.00
2018-04-12T14:07:33.430Z,21.00
2018-04-12T14:10:00.963Z,21.10
2018-04-12T14:12:28.475Z,21.00
2018-04-12T14:14:56.009Z,20.90
2018-04-12T14:17:23.526Z,20.80
2018-04-12T14:19:51.818Z,20.90
2018-04-12T14:22:19.344Z,20.90
2018-04-12T14:24:46.868Z,21.10
2018-04-12T14:27:14.411Z,21.10
2018-04-12T14:29:47.604Z,21.00
2018-04-12T14:32:15.149Z,21.00
2018-04-12T14:34:43.424Z,20.80
2018-04-12T14:37:11.711Z,20.80
2018-04-12T14:39:45.616Z,20.70
2018-04-12T14:42:19.692Z,20.70
2018-04-12T14:44:47.330Z,20.70
2018-04-12T14:47:26.710Z,20.80
2018-04-12T14:50:00.033Z,21.00
2018-04-12T14:52:28.309Z,21.10
2018-04-12T14:54:56.619Z,21.00
2018-04-12T14:57:35.800Z,21.00
2018-04-12T15:00:09.186Z,20.90
2018-04-12T15:02:42.289Z,20.80
2018-04-12T15:05:09.822Z,20.80
2018-04-12T15:07:37.347Z,20.80
2018-04-12T15:10:05.600Z,20.70
2018-04-12T15:12:33.131Z,20.70
2018-04-12T15:15:00.658Z,20.60
2018-04-12T15:17:28.951Z,20.50
2018-04-12T15:19:56.481Z,20.50
2018-04-12T15:22:24.824Z,20.60
2018-04-12T15:24:58.117Z,20.50
2018-04-12T15:27:25.643Z,20.50
2018-04-12T15:29:53.906Z,20.50
2018-04-12T15:32:21.452Z,20.50
2018-04-12T15:34:48.980Z,20.50
2018-04-12T15:37:22.446Z,20.40
2018-04-12T15:39:50.735Z,20.30
2018-04-12T15:42:24.156Z,20.30
2018-04-12T15:44:51.678Z,20.30
2018-04-12T15:47:19.194Z,20.30
2018-04-12T15:49:46.739Z,20.30
2018-04-12T15:52:20.124Z,20.20
2018-04-12T15:54:48.445Z,20.10
2018-04-12T15:57:27.824Z,20.10
2018-04-12T15:59:56.133Z,19.70
2018-04-12T16:02:29.429Z,19.70
2018-04-12T16:05:02.972Z,19.40
2018-04-12T16:07:30.481Z,19.40
2018-04-12T16:09:58.031Z,19.20
2018-04-12T16:12:26.309Z,18.90
2018-04-12T16:14:54.589Z,18.80
2018-04-12T16:17:22.927Z,18.70
2018-04-12T16:19:56.340Z,18.70
2018-04-12T16:22:29.501Z,18.70
2018-04-12T16:24:57.096Z,18.50
2018-04-12T16:27:24.626Z,18.30
2018-04-12T16:29:52.157Z,18.20
2018-04-12T16:32:32.229Z,18.10
2018-04-12T16:34:59.809Z,18.00
2018-04-12T16:37:34.125Z,17.80
2018-04-12T16:40:07.561Z,17.80
2018-04-12T16:42:46.714Z,17.70
2018-04-12T16:45:20.823Z,17.50
2018-04-12T16:47:49.163Z,17.30
2018-04-12T16:50:16.739Z,17.30
2018-04-12T16:52:44.268Z,17.30
2018-04-12T16:55:11.935Z,17.30
2018-04-12T16:57:39.460Z,17.30
2018-04-12T17:00:12.788Z,17.30
2018-04-12T17:02:40.301Z,17.20
2018-04-12T17:05:13.827Z,17.10
2018-04-12T17:07:42.121Z,17.00
2018-04-12T17:10:10.390Z,16.90
2018-04-12T17:12:38.685Z,16.90
2018-04-12T17:15:06.969Z,16.90
2018-04-12T17:17:35.283Z,16.80
2018-04-12T17:20:02.800Z,16.80
2018-04-12T17:22:31.091Z,16.80
2018-04-12T17:24:59.475Z,16.80
2018-04-12T17:27:27.764Z,16.70
2018-04-12T17:30:01.251Z,16.70
2018-04-12T17:32:35.605Z,16.60
2018-04-12T17:35:08.945Z,16.60
2018-04-12T17:37:36.486Z,16.60
2018-04-12T17:40:09.932Z,16.50
2018-04-12T17:42:37.505Z,16.50
2018-04-12T17:45:05.045Z,16.50
2018-04-12T17:47:38.396Z,16.40
2018-04-12T17:50:11.790Z,16.30
2018-04-12T17:52:45.287Z,16.20
2018-04-12T17:55:12.871Z,16.20
2018-04-12T17:57:40.609Z,16.20
2018-04-12T18:00:08.552Z,16.30
2018-04-12T18:02:36.912Z,16.20
2018-04-12T18:05:10.350Z,16.20
2018-04-12T18:07:37.968Z,16.20
2018-04-12T18:10:11.341Z,16.20
2018-04-12T18:12:38.951Z,16.10
2018-04-12T18:15:07.378Z,16.10
2018-04-12T18:17:34.988Z,16.10
2018-04-12T18:20:02.951Z,16.10
2018-04-12T18:22:30.568Z,16.10
2018-04-12T18:24:58.254Z,16.10
2018-04-12T18:27:25.871Z,16.10
2018-04-12T18:29:54.231Z,16.10
2018-04-12T18:32:22.928Z,16.20
2018-04-12T18:34:50.777Z,16.10
2018-04-12T18:37:18.400Z,16.10
2018-04-12T18:39:46.820Z,16.10
2018-04-12T18:42:14.583Z,16.10
2018-04-12T18:44:42.244Z,16.20
2018-04-12T18:47:15.858Z,16.20
2018-04-12T18:49:43.493Z,16.10
2018-04-12T18:52:11.900Z,16.10
2018-04-12T18:54:39.532Z,16.10
2018-04-12T18:57:07.926Z,16.10
2018-04-12T18:59:36.231Z,16.10
2018-04-12T19:02:04.016Z,16.10
2018-04-12T19:04:31.885Z,16.10
2018-04-12T19:07:05.669Z,16.10
2018-04-12T19:09:33.275Z,16.00
2018-04-12T19:12:06.745Z,16.00
2018-04-12T19:14:34.501Z,16.00
2018-04-12T19:17:02.157Z,16.00
2018-04-12T19:19:30.242Z,15.90
2018-04-12T19:21:57.928Z,16.00
2018-04-12T19:24:32.021Z,15.90
2018-04-12T19:27:05.541Z,15.90
2018-04-12T19:29:35.055Z,15.80
2018-04-12T19:32:03.492Z,15.70
2018-04-12T19:34:32.045Z,15.50
2018-04-12T19:37:08.078Z,15.50
2018-04-12T19:39:41.382Z,15.50
2018-04-12T19:42:09.247Z,15.50
2018-04-12T19:44:43.101Z,15.50
2018-04-12T19:47:16.457Z,15.50
2018-04-12T19:49:44.224Z,15.50
2018-04-12T19:52:12.676Z,15.50
2018-04-12T19:54:40.339Z,15.50
2018-04-12T19:57:13.809Z,15.40
2018-04-12T19:59:47.515Z,15.20
2018-04-12T20:02:15.250Z,15.10
2018-04-12T20:04:42.814Z,15.00
2018-04-12T20:07:10.399Z,14.90
2018-04-12T20:09:43.850Z,14.80
2018-04-12T20:12:23.141Z,14.80
2018-04-12T20:14:50.685Z,14.80
2018-04-12T20:17:24.054Z,14.80
2018-04-12T20:19:51.705Z,14.80
2018-04-12T20:22:19.295Z,14.80
2018-04-12T20:24:47.898Z,14.70
2018-04-12T20:27:21.091Z,14.70
2018-04-12T20:29:48.704Z,14.70
2018-04-12T20:32:23.057Z,14.70
2018-04-12T20:34:56.370Z,14.70
2018-04-12T20:37:24.000Z,14.70
2018-04-12T20:40:03.333Z,14.60
2018-04-12T20:42:30.942Z,14.60
2018-04-12T20:44:58.509Z,14.60
2018-04-12T20:47:26.091Z,14.60
2018-04-12T20:49:59.528Z,14.60
2018-04-12T20:52:27.079Z,14.60
2018-04-12T20:54:55.416Z,14.50
2018-04-12T20:57:28.824Z,14.50
2018-04-12T20:59:56.433Z,14.50
2018-04-12T21:02:24.733Z,14.30
2018-04-12T21:04:52.275Z,14.30
2018-04-12T21:07:26.383Z,14.30
2018-04-12T21:09:54.723Z,14.20
2018-04-12T21:12:22.269Z,14.20
2018-04-12T21:14:49.851Z,14.20
2018-04-12T21:17:17.682Z,14.10
2018-04-12T21:19:45.234Z,14.10
2018-04-12T21:22:19.116Z,14.10
2018-04-12T21:24:46.720Z,14.00
2018-04-12T21:27:14.250Z,14.00
2018-04-12T21:29:42.562Z,14.00
2018-04-12T21:32:10.898Z,14.00
2018-04-12T21:34:38.448Z,14.00
2018-04-12T21:37:05.963Z,14.00
2018-04-12T21:39:34.244Z,13.90
2018-04-12T21:42:08.396Z,13.90
2018-04-12T21:44:41.735Z,13.90
2018-04-12T21:47:09.243Z,13.90
2018-04-12T21:49:48.459Z,13.90
2018-04-12T21:52:16.735Z,13.80
2018-04-12T21:54:45.023Z,13.80
2018-04-12T21:57:13.302Z,13.80
2018-04-12T21:59:53.253Z,13.80
2018-04-12T22:02:20.772Z,13.80
2018-04-12T22:04:48.289Z,13.90
2018-04-12T22:07:15.826Z,13.90
2018-04-12T22:09:44.124Z,13.90
2018-04-12T22:12:12.413Z,14.00
2018-04-12T22:14:39.925Z,13.90
2018-04-12T22:17:13.282Z,14.00
2018-04-12T22:19:40.799Z,14.00
2018-04-12T22:22:20.217Z,14.00
2018-04-12T22:24:53.419Z,14.00
2018-04-12T22:27:26.769Z,14.00
2018-04-12T22:29:54.278Z,13.80
2018-04-12T22:32:27.362Z,13.60
2018-04-12T22:34:54.864Z,13.60
2018-04-12T22:37:23.158Z,13.50
2018-04-12T22:42:28.297Z,13.50
2018-04-12T22:44:56.570Z,13.40
2018-04-12T22:47:24.851Z,13.40
2018-04-12T22:49:58.363Z,13.40
2018-04-12T22:52:26.647Z,13.30
2018-04-12T22:55:00.736Z,13.20
2018-04-12T22:57:28.264Z,13.20
2018-04-12T23:00:01.527Z,13.20
2018-04-12T23:02:29.046Z,13.20
2018-04-12T23:05:02.213Z,13.10
2018-04-12T23:07:29.739Z,13.00
2018-04-12T23:09:58.055Z,13.00
2018-04-12T23:12:25.572Z,13.00
2018-04-12T23:14:53.856Z,13.50
2018-04-12T23:17:22.167Z,13.50
2018-04-12T23:19:49.688Z,13.50
2018-04-12T23:22:23.217Z,13.60
2018-04-12T23:24:50.725Z,13.60
2018-04-12T23:27:18.262Z,13.60
2018-04-12T23:29:51.409Z,13.60
2018-04-12T23:32:24.694Z,13.60
2018-04-12T23:34:58.065Z,13.80
2018-04-12T23:37:31.624Z,13.70
2018-04-12T23:39:59.910Z,13.60
2018-04-12T23:42:27.429Z,13.60
2018-04-12T23:44:54.967Z,13.50
2018-04-12T23:47:28.343Z,13.50
2018-04-12T23:49:55.893Z,13.50
2018-04-12T23:52:24.160Z,13.50
2018-04-12T23:54:58.281Z,13.50
2018-04-12T23:57:32.603Z,13.50
